Time;durP1;ratioP1;P1;durP2;ratioP2;P2;SDS_P1;SDS_P2;PMS_P1;PMS_P2;Temp;Humidity;BMP_temperature;BMP_pressure;BME280_temperature;BME280_humidity;BME280_pressure;Samples;Min_cycle;Max_cycle;Signal;HPM_P1;HPM_P2
2022/04/02 00:02:12;;;;;;;6.97;1.90;;;;;;;5.70;37.88;100724.56;5016182;28;99161;-71
2022/04/02 00:04:40;;;;;;;5.10;1.50;;;;;;;5.14;39.01;100726.25;5024761;28;97312;-71
2022/04/02 00:07:07;;;;;;;5.60;1.70;;;;;;;5.45;38.76;100719.69;5023676;27;96761;-72
2022/04/02 00:09:34;;;;;;;3.67;1.73;;;;;;;4.71;40.11;100723.34;5021913;28;101701;-72
2022/04/02 00:12:02;;;;;;;4.20;1.83;;;;;;;5.09;39.34;100718.47;5019170;27;98972;-70
2022/04/02 00:14:29;;;;;;;6.30;1.73;;;;;;;4.97;39.86;100726.50;5022061;27;96762;-70
2022/04/02 00:16:55;;;;;;;3.30;1.90;;;;;;;5.32;39.37;100727.75;5023987;28;96829;-71
2022/04/02 00:19:22;;;;;;;5.35;2.00;;;;;;;5.29;39.29;100731.31;5025142;27;99226;-71
2022/04/02 00:21:50;;;;;;;6.93;1.95;;;;;;;4.84;40.09;100719.69;5021954;28;97760;-72
2022/04/02 00:24:19;;;;;;;4.25;1.80;;;;;;;4.61;40.78;100730.41;5024637;27;96861;-70
2022/04/02 00:26:46;;;;;;;9.55;2.13;;;;;;;4.52;41.09;100740.13;5025609;28;97061;-68
2022/04/02 00:29:12;;;;;;;4.20;1.80;;;;;;;5.23;39.59;100726.16;5025197;28;97995;-70
2022/04/02 00:31:40;;;;;;;9.55;2.15;;;;;;;5.01;40.06;100732.56;5020753;28;101650;-70
2022/04/02 00:34:07;;;;;;;6.57;1.90;;;;;;;4.63;41.17;100733.03;5020079;28;96809;-70
2022/04/02 00:36:37;;;;;;;5.55;2.10;;;;;;;5.09;40.37;100731.56;5017162;28;97569;-71
2022/04/02 00:39:06;;;;;;;5.90;2.35;;;;;;;5.33;39.60;100730.34;5026786;28;98944;-70
2022/04/02 00:41:33;;;;;;;4.65;2.30;;;;;;;5.56;38.88;100727.41;5021230;28;100861;-69
2022/04/02 00:44:07;;;;;;;6.95;1.95;;;;;;;4.93;40.72;100729.16;5020922;28;97160;-69
2022/04/02 00:46:33;;;;;;;4.28;1.77;;;;;;;4.20;42.74;100723.00;5031474;28;97882;-70
2022/04/02 00:49:00;;;;;;;5.25;2.10;;;;;;;4.20;42.69;100732.63;5030045;27;99231;-69
2022/04/02 00:51:27;;;;;;;5.72;2.03;;;;;;;4.24;42.41;100732.56;5021644;27;99458;-69
2022/04/02 00:53:53;;;;;;;5.00;1.85;;;;;;;4.63;42.19;100733.91;5020115;27;96723;-69
2022/04/02 00:56:22;;;;;;;5.20;2.00;;;;;;;4.72;41.68;100738.16;5015235;27;96867;-70
2022/04/02 00:58:51;;;;;;;6.80;1.98;;;;;;;4.65;42.02;100731.28;5014416;27;99184;-72
2022/04/02 01:01:17;;;;;;;6.28;1.90;;;;;;;4.75;42.25;100738.13;5026328;27;98902;-73
2022/04/02 01:03:44;;;;;;;4.80;1.83;;;;;;;4.57;42.12;100736.59;5021540;27;97265;-72
2022/04/02 01:06:12;;;;;;;5.10;1.67;;;;;;;4.58;42.36;100735.72;5021942;28;97550;-71
2022/04/02 01:08:40;;;;;;;4.63;1.95;;;;;;;5.06;41.55;100739.47;5022199;28;98300;-71
2022/04/02 01:11:07;;;;;;;5.63;1.67;;;;;;;4.92;42.04;100735.31;5016595;27;97662;-70
2022/04/02 01:13:35;;;;;;;6.70;2.28;;;;;;;5.09;41.54;100734.19;5021987;27;96899;-71
2022/04/02 01:16:02;;;;;;;5.47;2.17;;;;;;;4.75;42.20;100744.22;5028359;28;97246;-71
2022/04/02 01:18:28;;;;;;;5.13;2.10;;;;;;;5.11;41.70;100745.53;5023968;28;97791;-72
2022/04/02 01:20:55;;;;;;;4.93;2.08;;;;;;;4.57;42.62;100754.03;5026109;28;99058;-71
2022/04/02 01:23:29;;;;;;;4.88;1.85;;;;;;;4.25;43.39;100747.41;5025132;27;97322;-70
2022/04/02 01:25:57;;;;;;;5.43;2.03;;;;;;;5.12;42.17;100749.00;5027424;28;96810;-72
2022/04/02 01:28:23;;;;;;;5.15;2.00;;;;;;;5.75;40.82;100748.97;5012788;28;98858;-69
2022/04/02 01:30:50;;;;;;;4.50;1.70;;;;;;;5.78;40.09;100748.91;5026117;28;98387;-70
2022/04/02 01:33:16;;;;;;;4.80;2.03;;;;;;;5.38;41.22;100748.66;5026451;28;97013;-69
2022/04/02 01:35:43;;;;;;;7.25;2.13;;;;;;;5.00;42.10;100746.53;5020893;28;96831;-71
2022/04/02 01:38:09;;;;;;;4.90;1.80;;;;;;;4.50;43.59;100755.84;5020564;28;99948;-69
2022/04/02 01:40:37;;;;;;;6.05;2.50;;;;;;;4.90;42.81;100742.31;5016988;28;98900;-71
2022/04/02 01:43:04;;;;;;;6.75;2.20;;;;;;;4.39;43.74;100753.38;5021730;28;96901;-71
2022/04/02 01:45:30;;;;;;;7.78;2.53;;;;;;;4.83;42.89;100744.13;5021867;28;99782;-71
2022/04/02 01:47:57;;;;;;;5.10;1.95;;;;;;;5.16;42.02;100743.72;5018986;28;98929;-71
2022/04/02 01:50:27;;;;;;;4.68;1.92;;;;;;;4.75;43.04;100752.06;5024576;28;99483;-70
2022/04/02 01:52:53;;;;;;;8.05;2.40;;;;;;;4.55;44.11;100745.31;5022136;28;97033;-71
2022/04/02 01:55:19;;;;;;;5.28;2.30;;;;;;;5.00;43.27;100738.66;5021418;28;99143;-70
2022/04/02 01:57:48;;;;;;;8.45;2.13;;;;;;;5.07;43.30;100740.31;5019977;28;100936;-71
2022/04/02 02:00:15;;;;;;;5.75;2.00;;;;;;;4.49;44.79;100751.50;5025216;28;98363;-70
2022/04/02 02:02:42;;;;;;;4.18;1.63;;;;;;;4.22;45.59;100742.19;5020810;28;96941;-71
2022/04/02 02:05:09;;;;;;;6.90;2.25;;;;;;;4.49;45.00;100751.50;5025395;28;97111;-70
2022/04/02 02:07:35;;;;;;;7.18;2.00;;;;;;;4.96;44.19;100740.47;5022616;28;101443;-70
2022/04/02 02:10:02;;;;;;;8.38;2.03;;;;;;;4.89;44.29;100746.66;5019796;28;98811;-70
2022/04/02 02:12:30;;;;;;;3.63;1.67;;;;;;;4.65;44.81;100747.84;5021798;28;97595;-71
2022/04/02 02:14:58;;;;;;;5.88;2.28;;;;;;;5.13;43.96;100745.47;5015352;28;98658;-71
2022/04/02 02:17:24;;;;;;;5.47;1.70;;;;;;;4.68;44.63;100746.91;5016140;28;99316;-71
2022/04/02 02:19:51;;;;;;;9.05;1.85;;;;;;;4.78;44.69;100735.47;5019445;28;101748;-71
2022/04/02 02:22:17;;;;;;;8.57;2.28;;;;;;;4.96;44.08;100747.47;5017861;27;98789;-70
2022/04/02 02:24:43;;;;;;;8.90;1.95;;;;;;;4.99;44.21;100737.81;5014673;28;98570;-70
2022/04/02 02:27:10;;;;;;;3.90;1.92;;;;;;;5.01;44.09;100746.50;5017642;28;98982;-71
2022/04/02 02:29:36;;;;;;;7.70;2.13;;;;;;;4.79;45.32;100742.44;5016291;28;99859;-68
2022/04/02 02:32:05;;;;;;;8.57;2.05;;;;;;;5.20;44.06;100741.91;5021487;27;97550;-69
2022/04/02 02:37:16;;;;;;;8.43;1.90;;;;;;;4.43;46.18;100746.34;5021573;28;97170;-70
2022/04/02 02:39:42;;;;;;;4.03;1.70;;;;;;;4.23;46.67;100741.31;5022422;27;98107;-68
2022/04/02 02:42:09;;;;;;;3.63;1.83;;;;;;;4.41;46.35;100745.47;5023140;27;96796;-71
2022/04/02 02:44:35;;;;;;;5.93;1.70;;;;;;;4.06;47.35;100745.84;5022226;27;96814;-71
2022/04/02 02:47:02;;;;;;;5.88;1.85;;;;;;;4.08;47.33;100744.03;5018329;27;99644;-71
2022/04/02 02:49:29;;;;;;;6.70;2.15;;;;;;;4.50;47.05;100748.00;5020540;27;98817;-69
2022/04/02 02:51:56;;;;;;;6.95;2.10;;;;;;;4.44;46.23;100755.06;5022204;28;96835;-69
2022/04/02 02:54:22;;;;;;;8.05;2.20;;;;;;;4.23;47.03;100743.91;5016044;27;97324;-69
2022/04/02 02:56:48;;;;;;;4.05;2.05;;;;;;;4.44;47.25;100750.69;5027440;27;98188;-68
2022/04/02 02:59:15;;;;;;;2.58;1.75;;;;;;;3.98;47.76;100752.88;5012523;28;98855;-69
2022/04/02 03:01:41;;;;;;;7.28;1.83;;;;;;;4.07;47.68;100754.53;5013365;27;96784;-68
2022/04/02 03:04:08;;;;;;;3.42;1.67;;;;;;;4.29;47.17;100749.09;5013442;27;96852;-68
2022/04/02 03:06:37;;;;;;;9.95;1.90;;;;;;;4.58;46.87;100751.41;5016778;27;98872;-68
2022/04/02 03:09:04;;;;;;;5.25;1.63;;;;;;;4.43;46.65;100756.78;5017813;27;97738;-69
2022/04/02 03:11:30;;;;;;;5.50;1.55;;;;;;;4.32;47.16;100758.66;5023461;28;96849;-70
2022/04/02 03:13:57;;;;;;;5.10;2.10;;;;;;;4.35;47.11;100758.63;5021581;28;96799;-69
2022/04/02 03:16:23;;;;;;;4.57;1.80;;;;;;;4.05;47.81;100751.94;5029035;28;99336;-70
2022/04/02 03:18:50;;;;;;;10.32;2.03;;;;;;;4.26;47.31;100749.13;5017756;28;100148;-70
2022/04/02 03:21:16;;;;;;;9.15;2.10;;;;;;;4.09;47.93;100761.47;5024935;28;96984;-70
2022/04/02 03:23:44;;;;;;;9.50;1.67;;;;;;;4.56;47.01;100760.16;5022940;28;96828;-70
2022/04/02 03:26:11;;;;;;;10.32;1.85;;;;;;;4.45;46.70;100760.28;5027334;28;98887;-71
2022/04/02 03:28:37;;;;;;;7.38;1.95;;;;;;;4.57;46.56;100764.50;5021650;28;99215;-70
2022/04/02 03:31:04;;;;;;;7.13;1.60;;;;;;;4.80;46.10;100762.47;5024262;28;96922;-71
2022/04/02 03:33:30;;;;;;;5.78;1.70;;;;;;;4.69;45.90;100764.38;5018673;28;96793;-71
2022/04/02 03:35:57;;;;;;;5.07;2.33;;;;;;;4.69;46.39;100766.97;5022177;27;99015;-71
2022/04/02 03:38:23;;;;;;;2.90;1.33;;;;;;;4.62;46.21;100767.94;5018748;28;98836;-70
2022/04/02 03:40:51;;;;;;;4.57;1.48;;;;;;;4.68;46.35;100773.09;5023767;28;98444;-71
2022/04/02 03:43:18;;;;;;;9.25;1.98;;;;;;;4.55;46.76;100777.59;5020547;28;97064;-70
2022/04/02 03:45:44;;;;;;;8.20;2.03;;;;;;;4.62;46.42;100773.16;5027349;28;98855;-70
2022/04/02 03:48:11;;;;;;;5.53;1.73;;;;;;;4.74;45.83;100779.13;5023479;28;98786;-71
2022/04/02 03:50:37;;;;;;;4.95;2.58;;;;;;;4.04;47.45;100770.25;5021010;28;97829;-71
2022/04/02 03:53:04;;;;;;;5.30;1.65;;;;;;;4.60;46.49;100777.53;5021060;28;97677;-71
2022/04/02 03:55:30;;;;;;;4.22;1.92;;;;;;;4.88;46.47;100786.84;5021108;27;99250;-70
2022/04/02 03:57:58;;;;;;;7.07;2.42;;;;;;;4.59;46.81;100781.06;5017921;28;98943;-71
2022/04/02 04:00:25;;;;;;;5.45;1.88;;;;;;;4.38;47.63;100788.25;5021188;28;97495;-70
2022/04/02 04:02:51;;;;;;;3.92;1.77;;;;;;;4.47;46.43;100789.88;5023146;28;97746;-71
2022/04/02 04:05:19;;;;;;;7.75;2.05;;;;;;;4.43;47.16;100789.94;5027445;28;97980;-70
2022/04/02 04:07:45;;;;;;;9.25;1.70;;;;;;;4.59;46.50;100788.91;5017895;27;97867;-71
2022/04/02 04:10:12;;;;;;;5.13;1.60;;;;;;;4.54;46.61;100788.06;5020255;28;97614;-71
2022/04/02 04:12:38;;;;;;;6.93;2.80;;;;;;;4.33;47.92;100794.41;5021212;28;97361;-70
2022/04/02 04:15:07;;;;;;;6.80;1.80;;;;;;;4.41;47.35;100795.19;5022783;27;99004;-69
2022/04/02 04:17:33;;;;;;;3.05;1.63;;;;;;;4.86;46.21;100799.06;5015709;27;99401;-71
2022/04/02 04:20:01;;;;;;;4.10;1.60;;;;;;;4.45;46.92;100796.91;5021180;28;96881;-71
2022/04/02 04:22:31;;;;;;;5.00;1.52;;;;;;;4.65;46.88;100804.56;5031382;27;96893;-74
2022/04/02 04:25:00;;;;;;;8.52;1.75;;;;;;;4.91;46.13;100805.13;5021207;28;97929;-70
2022/04/02 04:27:31;;;;;;;5.75;2.10;;;;;;;4.65;46.40;100802.81;5025281;28;100918;-74
2022/04/02 04:30:06;;;;;;;5.05;1.52;;;;;;;4.86;46.30;100809.53;5027632;28;97908;-73
2022/04/02 04:32:40;;;;;;;3.97;1.98;;;;;;;4.63;46.77;100815.03;5019718;28;98003;-72
2022/04/02 04:35:19;;;;;;;5.25;1.90;;;;;;;4.77;46.24;100813.16;5025709;28;99540;-72
2022/04/02 04:37:46;;;;;;;9.35;2.53;;;;;;;4.78;46.44;100814.00;5021623;28;98282;-70
2022/04/02 04:40:25;;;;;;;6.00;2.08;;;;;;;4.58;46.79;100822.06;5025060;28;97893;-70
2022/04/02 04:42:52;;;;;;;6.35;2.20;;;;;;;4.63;46.65;100822.88;5022328;28;97274;-73
2022/04/02 04:45:22;;;;;;;6.22;3.05;;;;;;;4.53;46.98;100823.00;5025504;27;101660;-71
2022/04/02 04:47:50;;;;;;;4.97;1.92;;;;;;;4.86;46.13;100833.09;5024377;28;97981;-72
2022/04/02 04:50:18;;;;;;;4.50;2.00;;;;;;;4.32;47.95;100830.16;5029325;28;96881;-73
2022/04/02 04:52:50;;;;;;;6.40;1.75;;;;;;;4.38;47.26;100832.72;5020640;28;97243;-71
2022/04/02 04:55:17;;;;;;;9.18;2.22;;;;;;;4.68;46.99;100830.69;5028101;28;100011;-71
2022/04/02 04:57:43;;;;;;;7.30;3.00;;;;;;;4.43;47.19;100835.28;5020503;28;96898;-71
2022/04/02 05:00:10;;;;;;;5.28;1.88;;;;;;;4.45;47.40;100840.53;5020564;28;97701;-71
2022/04/02 05:02:37;;;;;;;4.72;1.92;;;;;;;4.36;47.31;100842.31;5018455;28;97432;-70
2022/04/02 05:05:06;;;;;;;6.15;1.88;;;;;;;4.78;46.80;100843.69;5020392;28;100634;-70
2022/04/02 05:07:32;;;;;;;6.22;2.55;;;;;;;4.62;47.02;100838.59;5022438;28;99269;-70
2022/04/02 05:09:58;;;;;;;4.72;1.60;;;;;;;4.80;46.21;100841.88;5020634;28;98356;-69
2022/04/02 05:12:25;;;;;;;6.75;1.77;;;;;;;5.28;45.19;100843.97;5024180;27;96990;-72
2022/04/02 05:14:51;;;;;;;5.78;2.22;;;;;;;5.19;45.42;100856.28;5020249;28;97811;-73
2022/04/02 05:17:18;;;;;;;6.35;2.80;;;;;;;4.94;46.37;100849.59;5020524;27;98910;-71
2022/04/02 05:19:45;;;;;;;5.57;1.98;;;;;;;4.59;47.25;100859.59;5021102;28;97045;-72
2022/04/02 05:22:13;;;;;;;8.95;2.78;;;;;;;4.73;46.23;100858.53;5028008;27;97724;-72
2022/04/02 05:24:40;;;;;;;3.95;1.70;;;;;;;5.05;45.54;100860.84;5021986;28;98889;-71
2022/04/02 05:27:06;;;;;;;6.72;2.58;;;;;;;4.37;47.31;100867.63;5026111;28;98814;-72
2022/04/02 05:29:32;;;;;;;6.78;2.63;;;;;;;4.43;47.45;100865.81;5018131;28;99136;-72
2022/04/02 05:31:59;;;;;;;4.65;1.95;;;;;;;4.71;46.80;100867.31;5019538;28;98107;-71
2022/04/02 05:34:26;;;;;;;7.88;1.95;;;;;;;4.39;47.35;100878.94;5024895;28;99348;-72
2022/04/02 05:36:55;;;;;;;7.45;2.80;;;;;;;4.57;46.81;100875.28;5019791;28;101362;-71
2022/04/02 05:39:23;;;;;;;7.03;3.00;;;;;;;4.82;46.84;100871.56;5018330;28;96809;-70
2022/04/02 05:41:49;;;;;;;3.25;1.40;;;;;;;4.73;46.76;100881.22;5022525;28;96849;-71
2022/04/02 05:44:16;;;;;;;7.03;2.05;;;;;;;4.57;46.73;100879.66;5017325;28;98925;-70
2022/04/02 05:46:42;;;;;;;3.63;1.77;;;;;;;5.07;45.80;100876.53;5021984;28;102051;-71
2022/04/02 05:49:09;;;;;;;2.25;1.30;;;;;;;5.39;44.94;100889.25;5023374;28;97683;-71
2022/04/02 05:51:36;;;;;;;2.20;1.65;;;;;;;5.16;45.46;100886.91;5023496;28;96836;-70
2022/04/02 05:54:02;;;;;;;6.47;2.85;;;;;;;4.64;46.51;100884.81;5019085;28;97993;-71
2022/04/02 05:56:30;;;;;;;4.50;1.65;;;;;;;4.54;47.48;100888.38;5017554;28;98112;-70
2022/04/02 05:58:58;;;;;;;6.88;1.70;;;;;;;5.10;45.82;100890.47;5018700;28;96948;-71
2022/04/02 06:01:24;;;;;;;5.75;2.13;;;;;;;4.69;46.60;100898.72;5021434;28;96835;-71
2022/04/02 06:03:51;;;;;;;6.03;2.67;;;;;;;4.77;46.60;100904.78;5022231;28;100974;-72
2022/04/02 06:06:17;;;;;;;5.57;2.20;;;;;;;5.07;46.39;100903.59;5018873;28;99710;-71
2022/04/02 06:08:44;;;;;;;5.78;2.30;;;;;;;5.60;44.75;100912.56;5023016;28;96745;-71
2022/04/02 06:11:10;;;;;;;10.43;2.55;;;;;;;5.52;44.52;100909.19;5018621;28;98702;-72
2022/04/02 06:13:38;;;;;;;7.20;1.77;;;;;;;5.11;45.65;100915.78;5024158;28;99655;-71
2022/04/02 06:16:06;;;;;;;7.75;2.00;;;;;;;5.38;45.68;100911.97;5023546;27;98095;-70
2022/04/02 06:18:32;;;;;;;9.38;2.50;;;;;;;5.55;44.29;100917.88;5027221;28;96857;-70
2022/04/02 06:21:02;;;;;;;4.82;2.13;;;;;;;5.00;45.81;100915.00;5025966;27;96888;-72
2022/04/02 06:23:31;;;;;;;8.88;2.10;;;;;;;5.04;45.64;100908.88;5025342;28;99417;-73
2022/04/02 06:25:58;;;;;;;9.95;2.17;;;;;;;5.17;45.89;100915.72;5026678;27;98068;-71
2022/04/02 06:28:25;;;;;;;7.22;2.30;;;;;;;5.17;45.87;100920.09;5024530;28;96839;-69
2022/04/02 06:30:53;;;;;;;6.85;2.45;;;;;;;5.70;44.95;100927.31;5016399;28;97019;-70
2022/04/02 06:33:19;;;;;;;5.78;2.67;;;;;;;5.66;44.47;100925.59;5022413;27;99433;-71
2022/04/02 06:35:46;;;;;;;6.38;2.00;;;;;;;6.04;43.39;100927.75;5014427;28;102289;-71
2022/04/02 06:38:13;;;;;;;5.88;1.98;;;;;;;6.46;42.97;100926.25;5016588;28;96918;-70
2022/04/02 06:40:39;;;;;;;5.95;1.88;;;;;;;5.91;43.76;100924.44;5019868;27;96844;-70
2022/04/02 06:43:06;;;;;;;7.32;1.88;;;;;;;5.89;44.13;100922.72;5023201;28;99415;-70
2022/04/02 06:45:33;;;;;;;6.63;1.85;;;;;;;6.35;43.45;100922.94;5022037;28;100850;-70
2022/04/02 06:48:01;;;;;;;3.63;1.60;;;;;;;6.64;42.99;100919.81;5023350;27;96836;-71
2022/04/02 06:50:28;;;;;;;6.50;2.33;;;;;;;7.68;40.73;100918.75;5026676;28;96869;-71
2022/04/02 06:52:54;;;;;;;9.65;2.50;;;;;;;8.04;39.75;100923.22;5025966;28;101910;-70
2022/04/02 06:55:21;;;;;;;6.00;1.65;;;;;;;7.55;40.09;100926.88;5021638;28;99701;-70
2022/04/02 06:57:52;;;;;;;8.02;1.80;;;;;;;6.87;41.45;100922.06;5025812;28;96920;-70
2022/04/02 07:00:19;;;;;;;11.25;2.38;;;;;;;7.08;41.76;100921.69;5023459;27;96862;-71
2022/04/02 07:02:46;;;;;;;6.30;1.90;;;;;;;7.35;41.08;100915.06;5025891;28;98910;-71
2022/04/02 07:05:14;;;;;;;6.47;1.70;;;;;;;6.29;42.59;100923.91;5019638;28;101474;-71
2022/04/02 07:07:41;;;;;;;6.43;2.03;;;;;;;6.94;41.96;100923.72;5020775;28;97058;-70
2022/04/02 07:10:09;;;;;;;7.47;2.05;;;;;;;7.01;41.14;100925.34;5024986;28;96786;-72
2022/04/02 07:12:36;;;;;;;12.07;1.75;;;;;;;6.44;42.86;100916.66;5014856;28;101516;-70
2022/04/02 07:15:04;;;;;;;8.50;1.50;;;;;;;6.21;42.95;100922.28;5020195;28;98833;-74
2022/04/02 07:17:31;;;;;;;11.95;2.00;;;;;;;6.85;42.43;100929.97;5027097;28;96763;-72
2022/04/02 07:20:00;;;;;;;9.82;1.20;;;;;;;6.73;42.67;100931.06;5023251;28;97467;-71
2022/04/02 07:22:28;;;;;;;6.82;1.75;;;;;;;6.89;42.39;100938.69;5020207;28;102552;-71
2022/04/02 07:24:57;;;;;;;5.30;1.42;;;;;;;7.36;41.07;100935.16;5021183;27;101595;-74
2022/04/02 07:27:27;;;;;;;5.97;1.50;;;;;;;7.39;40.62;100936.00;5020203;28;97442;-73
2022/04/02 07:29:55;;;;;;;3.72;2.00;;;;;;;7.07;41.42;100938.34;5018100;28;96943;-71
2022/04/02 07:32:22;;;;;;;5.35;2.08;;;;;;;7.68;40.12;100940.66;5020583;28;99533;-73
2022/04/02 07:34:49;;;;;;;6.60;1.23;;;;;;;7.13;41.18;100935.63;5017706;28;99174;-72
2022/04/02 07:37:27;;;;;;;7.55;1.58;;;;;;;7.37;40.68;100945.66;5020822;28;99108;-72
2022/04/02 07:40:02;;;;;;;7.75;1.90;;;;;;;7.94;39.21;100945.38;5017480;28;97051;-71
2022/04/02 07:42:37;;;;;;;5.45;1.60;;;;;;;7.64;39.88;100943.38;5022114;28;99314;-73
2022/04/02 07:45:06;;;;;;;4.65;1.67;;;;;;;6.79;41.67;100940.59;5024400;28;99817;-71
2022/04/02 07:47:34;;;;;;;8.75;2.60;;;;;;;6.86;41.67;100946.59;5021628;28;97965;-71
2022/04/02 07:50:03;;;;;;;5.68;1.70;;;;;;;7.08;41.54;100940.09;5030902;27;96731;-73
2022/04/02 07:52:30;;;;;;;9.15;2.67;;;;;;;6.78;42.06;100947.59;5021058;28;98918;-73
2022/04/02 07:55:00;;;;;;;4.35;1.77;;;;;;;7.46;40.74;100942.88;5029084;28;99766;-74
2022/04/02 07:57:33;;;;;;;6.07;1.67;;;;;;;7.30;40.28;100949.28;5019890;27;96773;-71
2022/04/02 08:00:03;;;;;;;4.68;1.40;;;;;;;7.32;39.96;100947.50;5022123;28;96875;-71
2022/04/02 08:02:38;;;;;;;3.17;1.35;;;;;;;7.39;39.63;100954.38;5016564;28;98812;-70
2022/04/02 08:05:07;;;;;;;5.28;1.63;;;;;;;7.40;39.38;100955.25;5023589;28;98412;-71
2022/04/02 08:07:35;;;;;;;4.72;1.35;;;;;;;7.61;38.53;100955.69;5020334;28;96746;-70
2022/04/02 08:10:06;;;;;;;7.05;1.38;;;;;;;7.15;38.17;100960.13;5023096;28;96872;-71
2022/04/02 08:12:34;;;;;;;5.18;1.65;;;;;;;7.00;38.06;100961.25;5025716;28;99185;-71
2022/04/02 08:15:03;;;;;;;4.25;1.30;;;;;;;6.37;39.02;100971.00;5024241;28;98090;-71
2022/04/02 08:17:30;;;;;;;6.28;1.30;;;;;;;7.15;37.40;100960.94;5022137;28;97441;-71
2022/04/02 08:19:59;;;;;;;2.85;1.38;;;;;;;7.34;36.74;100956.25;5022310;28;97149;-70
2022/04/02 08:22:25;;;;;;;8.73;1.42;;;;;;;7.12;36.80;100962.78;5026823;28;97928;-71
2022/04/02 08:24:52;;;;;;;8.02;1.42;;;;;;;7.27;36.57;100966.91;5023159;28;101815;-72
2022/04/02 08:27:31;;;;;;;4.93;1.38;;;;;;;7.08;36.22;100961.13;5025450;28;96840;-72
2022/04/02 08:30:05;;;;;;;2.10;1.10;;;;;;;7.19;36.22;100952.13;5027778;28;96940;-73
2022/04/02 08:32:46;;;;;;;4.38;1.48;;;;;;;7.22;35.68;100954.69;5023301;28;99277;-72
2022/04/02 08:35:14;;;;;;;4.47;1.23;;;;;;;7.20;35.26;100958.25;5019075;28;99314;-72
2022/04/02 08:37:51;;;;;;;2.80;1.38;;;;;;;8.02;33.70;100962.72;5026421;28;97142;-72
2022/04/02 08:40:44;;;;;;;4.07;1.30;;;;;;;8.16;32.51;100979.97;5024093;28;98535;-72
2022/04/02 08:43:55;;;;;;;3.85;1.30;;;;;;;8.20;31.77;100966.75;5021492;28;99307;-71
2022/04/02 08:46:35;;;;;;;3.17;1.55;;;;;;;8.91;30.69;100969.47;4949277;28;100052;-71
2022/04/02 08:49:22;;;;;;;5.18;1.48;;;;;;;8.49;30.72;100974.00;4947630;28;96977;-70
2022/04/02 08:52:05;;;;;;;5.20;1.13;;;;;;;7.76;31.21;100985.22;4994695;28;97996;-69
2022/04/02 08:54:40;;;;;;;5.47;1.00;;;;;;;7.79;31.43;100977.28;5025969;28;100346;-71
2022/04/02 08:57:20;;;;;;;4.90;1.70;;;;;;;8.83;30.05;100984.59;5031676;28;100124;-69
2022/04/02 09:00:04;;;;;;;8.45;1.30;;;;;;;8.48;30.04;100980.16;5034212;28;96716;-71
2022/04/02 09:03:03;;;;;;;4.50;1.30;;;;;;;8.84;29.55;100980.19;5027844;27;96690;-74
2022/04/02 09:05:42;;;;;;;7.53;1.45;;;;;;;8.37;30.29;100974.28;5030819;28;97622;-73
2022/04/02 09:08:47;;;;;;;4.05;1.40;;;;;;;8.90;29.28;100973.00;5033870;27;97753;-69
2022/04/02 09:11:25;;;;;;;8.23;1.27;;;;;;;9.55;28.13;100976.53;5024861;27;96829;-74
2022/04/02 09:14:09;;;;;;;3.00;1.20;;;;;;;9.73;28.22;100975.16;5024904;28;96971;-72
2022/04/02 09:16:50;;;;;;;3.72;1.88;;;;;;;9.03;29.15;100971.78;5024018;28;98950;-71
2022/04/02 09:19:30;;;;;;;3.03;1.20;;;;;;;8.45;29.92;100988.16;5030624;28;98097;-69
2022/04/02 09:22:05;;;;;;;4.45;1.70;;;;;;;8.97;29.13;100979.84;5021491;28;96830;-71
2022/04/02 09:24:57;;;;;;;5.60;1.60;;;;;;;8.13;30.37;100990.59;5024456;28;97152;-69
2022/04/02 09:27:51;;;;;;;3.40;1.08;;;;;;;7.72;30.68;100991.44;5028858;28;100718;-71
2022/04/02 09:30:36;;;;;;;3.10;1.20;;;;;;;7.78;30.58;100980.78;5028693;28;99337;-72
2022/04/02 09:33:28;;;;;;;2.53;1.38;;;;;;;7.95;30.19;100991.81;5030046;28;97396;-71
2022/04/02 09:36:24;;;;;;;4.07;1.33;;;;;;;7.80;30.69;100986.91;5022264;28;96728;-70
2022/04/02 09:39:07;;;;;;;5.05;1.30;;;;;;;8.09;29.98;100978.38;5020769;28;98943;-71
2022/04/02 09:41:57;;;;;;;4.55;1.63;;;;;;;7.89;30.36;100989.31;5019045;28;101533;-72
2022/04/02 09:44:48;;;;;;;2.72;1.33;;;;;;;8.01;30.74;100995.19;5021964;28;96876;-69
2022/04/02 09:47:21;;;;;;;5.32;1.63;;;;;;;8.40;30.32;100980.31;5014414;28;98578;-69
2022/04/02 09:50:08;;;;;;;4.32;1.50;;;;;;;8.77;28.91;100976.84;5018409;28;101475;-70
2022/04/02 09:52:36;;;;;;;;;;;;;;;8.98;28.88;100978.09;5023379;28;98935;-72
2022/04/02 09:55:12;;;;;;;4.60;1.50;;;;;;;9.06;29.25;100982.22;5028487;28;98661;-71
2022/04/02 09:57:59;;;;;;;4.78;1.52;;;;;;;9.60;28.25;100974.63;5023139;27;97051;-72
2022/04/02 10:00:36;;;;;;;3.58;1.60;;;;;;;9.40;28.18;100970.81;5019481;28;99208;-70
2022/04/02 10:03:08;;;;;;;3.50;1.60;;;;;;;8.82;29.11;100974.09;5027711;28;97599;-70
2022/04/02 10:05:59;;;;;;;6.95;2.00;;;;;;;9.13;28.49;100973.25;5020664;28;97487;-70
2022/04/02 10:08:38;;;;;;;3.40;1.88;;;;;;;9.19;28.82;100974.88;5024328;28;96970;-70
2022/04/02 10:11:07;;;;;;;4.63;1.42;;;;;;;9.91;27.50;100979.91;5024225;28;98956;-70
2022/04/02 10:13:35;;;;;;;2.78;1.42;;;;;;;10.56;26.64;100974.44;5019346;28;100347;-69
2022/04/02 10:16:07;;;;;;;4.65;1.40;;;;;;;10.93;26.64;100967.94;5028490;28;97728;-72
2022/04/02 10:18:35;;;;;;;1.58;1.17;;;;;;;10.07;27.06;100972.41;5025815;28;97100;-69
2022/04/02 10:21:06;;;;;;;3.67;1.73;;;;;;;9.33;27.84;100966.59;5030473;27;98305;-69
2022/04/02 10:23:36;;;;;;;5.63;1.73;;;;;;;9.72;27.80;100973.41;5024022;28;98222;-70
2022/04/02 10:26:13;;;;;;;7.53;1.70;;;;;;;9.85;27.42;100980.06;5023920;28;97254;-69
2022/04/02 10:28:49;;;;;;;4.38;1.63;;;;;;;9.50;28.01;100973.16;5025336;28;96786;-71
2022/04/02 10:31:35;;;;;;;2.60;1.60;;;;;;;8.45;28.90;100969.72;5028511;27;98930;-69
2022/04/02 10:34:10;;;;;;;6.60;1.60;;;;;;;9.28;27.84;100965.88;5033847;28;97634;-71
2022/04/02 10:36:44;;;;;;;3.90;1.75;;;;;;;10.10;26.46;100968.81;5025974;28;96893;-70
2022/04/02 10:39:15;;;;;;;3.50;1.92;;;;;;;10.28;26.61;100973.56;5025645;28;98873;-70
2022/04/02 10:41:45;;;;;;;2.22;1.30;;;;;;;9.63;27.27;100963.13;5019016;28;101727;-70
2022/04/02 10:44:27;;;;;;;4.03;1.77;;;;;;;10.63;26.23;100961.91;5020063;28;101913;-70
2022/04/02 10:47:03;;;;;;;3.40;1.70;;;;;;;10.40;25.99;100952.06;5019674;28;97495;-70
2022/04/02 10:49:35;;;;;;;3.90;1.85;;;;;;;10.10;26.85;100947.69;5018588;28;98864;-72
2022/04/02 10:52:07;;;;;;;4.15;1.70;;;;;;;10.54;26.76;100952.47;5013452;27;100578;-71
2022/04/02 10:54:36;;;;;;;6.07;1.77;;;;;;;10.63;26.48;100933.66;5021657;27;98434;-71
2022/04/02 10:57:06;;;;;;;4.32;1.92;;;;;;;10.54;26.53;100944.56;5025983;27;96891;-71
2022/04/02 10:59:36;;;;;;;4.15;1.88;;;;;;;10.97;25.71;100940.47;5028627;27;97081;-70
2022/04/02 11:02:03;;;;;;;1.58;1.30;;;;;;;10.91;25.31;100944.19;5023786;28;99417;-72
2022/04/02 11:04:36;;;;;;;4.60;1.52;;;;;;;10.50;26.18;100950.00;5021772;28;98840;-72
2022/04/02 11:07:04;;;;;;;6.57;1.58;;;;;;;10.12;26.60;100956.41;5023156;28;99164;-71
2022/04/02 11:09:33;;;;;;;4.78;2.03;;;;;;;10.53;26.41;100950.75;5032475;27;97053;-71
2022/04/02 11:12:05;;;;;;;3.08;1.17;;;;;;;10.27;26.74;100956.00;5026894;28;99964;-72
2022/04/02 11:14:41;;;;;;;3.65;1.60;;;;;;;10.54;26.35;100949.84;5029789;27;98949;-72
2022/04/02 11:17:08;;;;;;;2.35;1.27;;;;;;;9.34;27.67;100956.03;5031447;27;97500;-71
2022/04/02 11:22:28;;;;;;;2.97;1.48;;;;;;;10.03;27.04;100952.28;5022995;27;97456;-72
2022/04/02 11:25:03;;;;;;;6.70;1.60;;;;;;;10.94;25.61;100953.81;5019914;27;97731;-72
2022/04/02 11:27:31;;;;;;;10.70;3.95;;;;;;;11.17;25.39;100940.66;5025573;27;96791;-70
2022/04/02 11:30:04;;;;;;;6.22;1.83;;;;;;;10.08;26.88;100949.50;5022687;28;98504;-71
2022/04/02 11:32:42;;;;;;;3.08;1.27;;;;;;;9.81;27.95;100957.34;5025108;28;99215;-71
2022/04/02 11:35:13;;;;;;;3.72;1.48;;;;;;;9.74;29.17;100960.19;5023503;28;99199;-69
2022/04/02 11:37:56;;;;;;;4.90;1.33;;;;;;;8.60;31.44;100966.69;5028645;28;96812;-72
2022/04/02 11:40:30;;;;;;;4.32;1.85;;;;;;;8.51;32.59;100969.56;5024163;28;96719;-72
2022/04/02 11:43:01;;;;;;;3.58;1.30;;;;;;;8.02;33.75;100978.50;5021783;28;97768;-72
2022/04/02 11:45:33;;;;;;;4.40;1.50;;;;;;;8.13;34.45;100975.66;5021680;28;97400;-76
2022/04/02 11:48:10;;;;;;;8.88;1.73;;;;;;;8.83;33.73;100974.06;5025245;27;97147;-73
2022/04/02 11:50:40;;;;;;;9.50;1.35;;;;;;;8.83;34.20;100974.06;5024989;28;97492;-72
2022/04/02 11:53:08;;;;;;;4.13;1.42;;;;;;;8.79;33.97;100981.16;5023983;28;99365;-72